TimeADT,TemperatureF,Dew PointF,Humidity,Sea Level PressureIn,VisibilityMPH,Wind Direction,Wind SpeedMPH,Gust SpeedMPH,PrecipitationIn,Events,Conditions,WindDirDegrees,DateUTC
12:00 AM,26.6,19.4,74,29.60,15.0,SSW,18.4,27.6,N/A,,Scattered Clouds,210,2013-03-21 03:00:00
1:00 AM,26.6,17.6,69,29.62,15.0,SSW,13.8,21.9,N/A,,Partly Cloudy,210,2013-03-21 04:00:00
2:00 AM,26.6,19.4,74,29.65,15.0,SSW,16.1,21.9,N/A,,Scattered Clouds,210,2013-03-21 05:00:00
3:00 AM,27,19,60,29.68,15,SSW,15.0,,,,Scattered Clouds,210,2013-03-21 06:00:00
3:00 AM,26.6,19.4,74,29.68,15.0,SSW,16.1,23.0,N/A,,Partly Cloudy,210,2013-03-21 06:00:00
4:00 AM,26.6,17.6,69,29.70,15.0,SW,10.4,-,N/A,,Partly Cloudy,220,2013-03-21 07:00:00
5:00 AM,24.8,19.4,80,29.73,15.0,South,11.5,-,N/A,,Partly Cloudy,180,2013-03-21 08:00:00
6:00 AM,24.8,23.0,93,29.76,15.0,South,13.8,-,N/A,,Partly Cloudy,180,2013-03-21 09:00:00
7:00 AM,26.6,23.0,86,29.78,15.0,South,13.8,-,N/A,,Partly Cloudy,180,2013-03-21 10:00:00
8:00 AM,26.6,23.0,86,29.80,15.0,South,13.8,-,N/A,,Partly Cloudy,170,2013-03-21 11:00:00
9:00 AM,28,24,81,29.82,15,South,16.1,,,,Scattered Clouds,170,2013-03-21 12:00:00
9:00 AM,28.4,24.8,86,29.82,15.0,South,15.0,-,N/A,,Partly Cloudy,170,2013-03-21 12:00:00
9:42 AM,28.4,24.8,86,29.83,15.0,South,13.8,19.6,N/A,Snow,Light Snow Showers,170,2013-03-21 12:42:00
10:00 AM,30.2,24.8,80,29.84,15.0,South,17.3,-,N/A,,Mostly Cloudy,170,2013-03-21 13:00:00
11:00 AM,33.8,26.6,75,29.84,15.0,South,16.1,21.9,N/A,,Mostly Cloudy,180,2013-03-21 14:00:00
12:00 PM,35.6,24.8,65,29.83,15.0,SSW,16.1,-,N/A,,Mostly Cloudy,200,2013-03-21 15:00:00
1:00 PM,37.4,24.8,60,29.84,15.0,South,13.8,-,N/A,,Mostly Cloudy,190,2013-03-21 16:00:00
2:00 PM,37.4,24.8,60,29.83,15.0,South,10.4,18.4,N/A,,Mostly Cloudy,180,2013-03-21 17:00:00
3:00 PM,39,22,37,29.83,15,SSW,12.7,,,,Scattered Clouds,200,2013-03-21 18:00:00
3:00 PM,39.2,21.2,49,29.83,15.0,SSW,12.7,-,N/A,,Mostly Cloudy,200,2013-03-21 18:00:00
4:00 PM,39.2,23.0,52,29.81,15.0,South,6.9,-,N/A,,Mostly Cloudy,190,2013-03-21 19:00:00
5:00 PM,37.4,23.0,56,29.79,15.0,SSE,8.1,-,N/A,,Mostly Cloudy,160,2013-03-21 20:00:00
6:00 PM,37.4,23.0,56,29.78,15.0,SE,6.9,-,N/A,,Overcast,130,2013-03-21 21:00:00
7:00 PM,35.6,24.8,65,29.75,15.0,ESE,4.6,-,N/A,,Overcast,110,2013-03-21 22:00:00
7:33 PM,35.6,23.0,60,29.75,15.0,ESE,6.9,-,N/A,,Overcast,110,2013-03-21 22:33:00
8:00 PM,35.6,24.8,65,29.75,15.0,East,4.6,-,N/A,,Overcast,100,2013-03-21 23:00:00
9:00 PM,34,24,56,29.73,15,East,5.8,,,,Overcast,90,2013-03-22 00:00:00
9:00 PM,33.8,24.8,70,29.72,15.0,East,4.6,-,N/A,,Overcast,90,2013-03-22 00:00:00
10:00 PM,33.8,26.6,75,29.68,15.0,ENE,8.1,-,N/A,,Overcast,70,2013-03-22 01:00:00
11:00 PM,32.0,26.6,80,29.64,15.0,East,12.7,-,N/A,,Overcast,100,2013-03-22 02:00:00
11:18 PM,32.0,26.6,80,29.62,15.0,ESE,17.3,23.0,N/A,Snow,Light Snow,110,2013-03-22 02:18:00